Time;durP1;ratioP1;P1;durP2;ratioP2;P2;SDS_P1;SDS_P2;PMS_P1;PMS_P2;Temp;Humidity;BMP_temperature;BMP_pressure;BME280_temperature;BME280_humidity;BME280_pressure;Samples;Min_cycle;Max_cycle;Signal;HPM_P1;HPM_P2
2021/09/30 00:00:20;;;;;;;6.80;1.20;;;11.50;99.90;;;;;;4999170;28;37559;-78
2021/09/30 00:02:46;;;;;;;8.85;1.60;;;11.50;99.90;;;;;;5002051;28;37845;-78
2021/09/30 00:05:12;;;;;;;5.57;1.23;;;11.60;99.90;;;;;;4996727;28;37827;-78
2021/09/30 00:07:39;;;;;;;7.22;1.23;;;11.60;99.90;;;;;;4999394;28;40701;-78
2021/09/30 00:10:08;;;;;;;9.25;2.10;;;11.60;99.90;;;;;;4997969;28;37323;-78
2021/09/30 00:12:39;;;;;;;9.85;1.48;;;11.60;99.90;;;;;;4994719;28;37951;-78
2021/09/30 00:15:09;;;;;;;9.45;1.67;;;11.60;99.90;;;;;;4996826;28;37380;-78
2021/09/30 01:28:51;;;;;;;9.45;1.55;;;11.80;99.90;;;;;;4995011;28;38749;-78
2021/09/30 01:33:21;;;;;;;9.10;1.50;;;11.90;99.90;;;;;;4999058;28;39022;-78
2021/09/30 02:19:36;;;;;;;8.40;1.50;;;11.50;99.90;;;;;;4998544;28;40181;-78
2021/09/30 02:25:16;;;;;;;9.40;1.10;;;11.50;99.90;;;;;;4999472;28;37896;-78
2021/09/30 03:00:34;;;;;;;5.55;1.08;;;11.30;99.90;;;;;;4982482;28;39412;-78
2021/09/30 03:03:03;;;;;;;9.25;1.33;;;11.30;99.90;;;;;;4979588;28;38523;-78
2021/09/30 03:05:30;;;;;;;8.63;1.45;;;11.30;99.90;;;;;;4979815;28;38426;-78
2021/09/30 03:07:57;;;;;;;8.23;1.63;;;11.30;99.90;;;;;;4977127;28;37766;-78
2021/09/30 03:10:25;;;;;;;14.68;1.80;;;11.40;99.90;;;;;;4977469;28;36128;-78
2021/09/30 03:12:52;;;;;;;9.00;1.17;;;11.40;99.90;;;;;;4979701;28;39843;-78
2021/09/30 03:17:56;;;;;;;6.90;1.10;;;11.30;99.90;;;;;;4980592;28;38255;-78
2021/09/30 03:20:41;;;;;;;10.60;1.83;;;11.30;99.90;;;;;;4979912;28;39151;-78
2021/09/30 03:23:11;;;;;;;15.57;1.58;;;11.30;99.90;;;;;;4977939;28;39526;-78
2021/09/30 03:25:38;;;;;;;10.43;1.20;;;11.30;99.90;;;;;;4978412;28;38980;-78
2021/09/30 03:28:05;;;;;;;8.65;1.42;;;11.40;99.90;;;;;;4979865;28;39225;-78
2021/09/30 03:30:32;;;;;;;9.50;1.40;;;11.30;99.90;;;;;;4993031;28;39468;-78
2021/09/30 03:33:06;;;;;;;13.02;2.13;;;11.40;99.90;;;;;;4978302;28;38825;-78
2021/09/30 03:35:34;;;;;;;7.15;1.27;;;11.30;99.90;;;;;;4978803;28;38621;-78
2021/09/30 03:38:01;;;;;;;7.75;1.58;;;11.30;99.90;;;;;;4978053;28;37456;-78
2021/09/30 03:40:28;;;;;;;7.57;1.35;;;11.30;99.90;;;;;;4968992;28;39350;-78
2021/09/30 03:42:54;;;;;;;13.90;1.63;;;11.20;99.90;;;;;;4973786;28;40658;-78
2021/09/30 03:45:20;;;;;;;5.85;1.30;;;11.20;99.90;;;;;;4979679;28;38913;-78
2021/09/30 03:47:46;;;;;;;12.05;1.20;;;11.10;99.90;;;;;;4980677;28;37503;-78
2021/09/30 03:50:22;;;;;;;6.40;1.48;;;11.00;99.90;;;;;;4975109;28;38796;-78
2021/09/30 03:53:00;;;;;;;7.53;1.45;;;11.10;99.90;;;;;;4981292;28;38948;-78
2021/09/30 04:00:52;;;;;;;7.95;1.50;;;11.10;99.90;;;;;;4979759;28;40006;-78
2021/09/30 04:03:19;;;;;;;8.95;1.50;;;11.30;99.90;;;;;;4988261;28;38270;-77
2021/09/30 04:05:45;;;;;;;8.82;1.40;;;11.20;99.90;;;;;;4982341;28;38555;-78
2021/09/30 04:08:11;;;;;;;7.57;1.15;;;11.40;99.90;;;;;;4984208;28;36474;-77
2021/09/30 04:10:37;;;;;;;8.10;1.17;;;11.40;99.90;;;;;;4982419;28;38393;-78
2021/09/30 04:13:03;;;;;;;9.73;1.50;;;11.40;99.90;;;;;;4979529;28;38879;-78
2021/09/30 04:15:29;;;;;;;7.28;1.70;;;11.30;99.90;;;;;;4978163;28;39195;-78
2021/09/30 04:17:55;;;;;;;12.05;1.63;;;11.30;99.90;;;;;;4980374;28;37080;-78
2021/09/30 04:20:22;;;;;;;6.85;1.40;;;11.30;99.90;;;;;;4978924;28;37707;-78
2021/09/30 04:22:48;;;;;;;4.95;0.95;;;11.20;99.90;;;;;;4979835;28;39193;-78
2021/09/30 04:25:14;;;;;;;4.47;1.00;;;11.20;99.90;;;;;;4972738;28;37357;-78
2021/09/30 04:27:40;;;;;;;6.97;1.27;;;11.20;99.90;;;;;;4979615;28;37256;-78
2021/09/30 04:30:08;;;;;;;10.20;1.58;;;11.20;99.90;;;;;;4981661;28;38642;-77
2021/09/30 04:32:34;;;;;;;9.05;1.45;;;11.20;99.90;;;;;;4979609;28;39791;-78
2021/09/30 04:35:00;;;;;;;9.50;1.45;;;11.20;99.90;;;;;;4973252;28;37641;-78
2021/09/30 04:37:26;;;;;;;9.30;2.25;;;11.20;99.90;;;;;;4988352;28;36098;-78
2021/09/30 04:39:52;;;;;;;7.38;1.60;;;11.20;99.90;;;;;;4976580;28;38910;-78
2021/09/30 04:42:18;;;;;;;10.10;1.60;;;11.20;99.90;;;;;;4979051;28;38583;-78
2021/09/30 04:44:44;;;;;;;7.90;1.20;;;11.30;99.90;;;;;;4978686;28;35734;-77
2021/09/30 04:47:10;;;;;;;10.30;1.73;;;11.40;99.90;;;;;;4975695;28;36312;-78
2021/09/30 04:49:37;;;;;;;7.40;1.35;;;11.40;99.90;;;;;;4978586;28;38875;-78
2021/09/30 04:52:03;;;;;;;9.00;1.52;;;11.50;99.90;;;;;;4974733;28;39317;-78
2021/09/30 04:54:29;;;;;;;10.05;1.50;;;11.50;99.90;;;;;;4979233;28;37323;-78
2021/09/30 04:56:55;;;;;;;8.20;1.23;;;11.60;99.90;;;;;;4975606;28;35812;-78
2021/09/30 04:59:21;;;;;;;8.05;1.15;;;11.60;99.90;;;;;;4975965;28;36330;-78
2021/09/30 05:01:47;;;;;;;9.68;1.30;;;11.50;99.90;;;;;;4973596;28;38345;-78
2021/09/30 05:04:14;;;;;;;8.00;1.58;;;11.50;99.90;;;;;;4989435;28;38830;-78
2021/09/30 05:06:40;;;;;;;8.23;1.23;;;11.40;99.90;;;;;;4973823;28;37849;-78
2021/09/30 05:09:06;;;;;;;8.32;1.42;;;11.30;99.90;;;;;;4977582;28;39810;-78
2021/09/30 05:11:36;;;;;;;9.85;2.33;;;11.30;99.90;;;;;;4976459;28;38546;-78
2021/09/30 05:14:03;;;;;;;4.78;1.10;;;11.30;99.90;;;;;;4988702;28;38535;-78
2021/09/30 05:16:29;;;;;;;10.98;1.60;;;11.10;99.90;;;;;;4975923;28;36598;-78
2021/09/30 05:18:56;;;;;;;10.15;1.88;;;11.00;99.90;;;;;;4973365;28;38895;-78
2021/09/30 05:21:23;;;;;;;12.65;1.92;;;11.00;99.90;;;;;;4978056;28;39115;-79
2021/09/30 05:23:51;;;;;;;8.52;1.33;;;11.00;99.90;;;;;;4976728;28;36325;-78
2021/09/30 05:26:17;;;;;;;8.88;1.38;;;11.00;99.90;;;;;;5005230;28;36260;-78
2021/09/30 05:28:44;;;;;;;6.70;1.25;;;10.90;99.90;;;;;;4997265;28;38926;-79
2021/09/30 05:31:10;;;;;;;10.10;1.50;;;10.80;99.90;;;;;;4996134;28;40927;-77
2021/09/30 05:33:36;;;;;;;10.65;1.42;;;10.80;99.90;;;;;;5016322;28;37880;-78
2021/09/30 05:36:02;;;;;;;6.05;1.48;;;10.80;99.90;;;;;;4994066;28;35833;-78
2021/09/30 05:38:29;;;;;;;6.28;1.25;;;10.70;99.90;;;;;;4999105;28;38918;-78
2021/09/30 05:40:55;;;;;;;8.07;1.65;;;10.70;99.90;;;;;;4991230;28;39134;-78
2021/09/30 05:43:28;;;;;;;7.75;1.27;;;10.60;99.90;;;;;;4997123;28;37867;-78
2021/09/30 05:45:58;;;;;;;7.68;1.15;;;10.50;99.90;;;;;;4991551;28;37260;-78
2021/09/30 05:48:25;;;;;;;5.88;1.27;;;10.40;99.90;;;;;;4992034;28;40817;-79
2021/09/30 05:50:52;;;;;;;7.30;1.50;;;10.50;99.90;;;;;;4993390;28;37903;-78
2021/09/30 05:53:18;;;;;;;7.13;1.40;;;10.60;99.90;;;;;;4994713;28;38553;-78
2021/09/30 05:55:45;;;;;;;7.57;1.50;;;10.60;99.90;;;;;;4996746;28;37904;-78
2021/09/30 05:58:12;;;;;;;10.73;1.35;;;10.60;99.90;;;;;;4998622;28;39439;-78
2021/09/30 06:14:08;;;;;;;8.82;1.55;;;10.50;99.90;;;;;;4993699;28;40809;-78
2021/09/30 06:16:37;;;;;;;6.55;1.48;;;10.60;99.90;;;;;;4988983;28;36429;-78
2021/09/30 06:19:04;;;;;;;10.90;1.88;;;10.60;99.90;;;;;;4995579;28;38561;-78
2021/09/30 06:21:30;;;;;;;7.90;1.70;;;10.60;99.90;;;;;;4996189;28;37810;-78
2021/09/30 06:23:57;;;;;;;10.50;1.58;;;10.60;99.90;;;;;;4998271;28;38364;-79
2021/09/30 06:26:23;;;;;;;11.50;1.77;;;10.60;99.90;;;;;;4997442;28;37223;-78
2021/09/30 06:28:49;;;;;;;10.32;2.15;;;10.60;99.90;;;;;;4995851;28;38747;-80
2021/09/30 06:31:15;;;;;;;7.45;2.47;;;10.60;99.90;;;;;;4995689;28;39879;-79
2021/09/30 06:33:41;;;;;;;12.20;2.00;;;10.60;99.90;;;;;;5005126;28;40601;-80
2021/09/30 06:36:07;;;;;;;6.38;1.60;;;10.60;99.90;;;;;;5015022;28;36195;-79
2021/09/30 06:38:33;;;;;;;6.82;1.88;;;10.60;99.90;;;;;;5008037;28;39340;-80
2021/09/30 06:40:59;;;;;;;10.27;2.15;;;10.60;99.90;;;;;;5019027;28;38474;-79
2021/09/30 06:43:25;;;;;;;6.38;1.80;;;10.60;99.90;;;;;;5018712;28;37127;-80
2021/09/30 06:45:52;;;;;;;11.02;1.90;;;10.60;99.90;;;;;;5013079;28;36001;-79
2021/09/30 06:48:18;;;;;;;10.77;2.40;;;10.60;99.90;;;;;;5016932;28;38044;-80
2021/09/30 06:50:46;;;;;;;9.57;2.00;;;10.70;99.90;;;;;;5024334;28;39080;-79
2021/09/30 06:53:13;;;;;;;6.57;1.63;;;10.80;99.90;;;;;;5014072;28;38515;-80
2021/09/30 06:55:42;;;;;;;8.10;2.33;;;10.80;99.90;;;;;;5022981;28;38129;-79
2021/09/30 06:58:10;;;;;;;11.65;2.63;;;10.90;99.90;;;;;;5014786;28;37566;-80
2021/09/30 07:00:38;;;;;;;7.78;2.00;;;11.00;99.90;;;;;;5012031;28;38901;-80
2021/09/30 07:03:04;;;;;;;12.57;2.20;;;11.00;99.90;;;;;;5009500;28;37537;-80
2021/09/30 07:05:32;;;;;;;12.43;2.13;;;11.10;99.90;;;;;;5020080;28;36814;-80
2021/09/30 07:08:03;;;;;;;8.93;2.00;;;11.10;99.90;;;;;;5013890;28;38865;-80
2021/09/30 07:10:29;;;;;;;7.32;1.60;;;11.10;99.90;;;;;;5017801;28;39468;-80
2021/09/30 07:12:56;;;;;;;10.68;1.92;;;11.20;99.90;;;;;;5019102;28;39148;-80
2021/09/30 07:15:22;;;;;;;14.13;3.90;;;11.20;99.90;;;;;;5015706;28;36079;-80
2021/09/30 07:17:48;;;;;;;12.73;4.70;;;11.30;99.90;;;;;;5017498;28;38047;-80
2021/09/30 07:20:14;;;;;;;10.43;3.83;;;11.30;99.90;;;;;;5003251;28;40246;-79
2021/09/30 07:22:40;;;;;;;11.60;2.88;;;11.40;99.90;;;;;;5007659;28;38807;-80
2021/09/30 07:25:07;;;;;;;15.10;2.47;;;11.50;99.90;;;;;;5006143;28;38233;-80
2021/09/30 07:27:35;;;;;;;7.72;1.90;;;11.60;99.90;;;;;;5011598;28;39591;-79
2021/09/30 07:30:01;;;;;;;8.07;1.85;;;11.60;99.90;;;;;;5012883;28;39789;-80
2021/09/30 07:32:27;;;;;;;8.45;1.92;;;11.60;99.90;;;;;;5001286;28;39221;-80
2021/09/30 07:34:53;;;;;;;8.70;1.80;;;11.60;99.90;;;;;;5005656;28;38091;-80
2021/09/30 07:37:19;;;;;;;7.32;2.08;;;11.70;99.90;;;;;;5008657;28;39848;-80
2021/09/30 07:39:46;;;;;;;8.75;1.67;;;11.70;99.90;;;;;;5008662;28;39380;-80
2021/09/30 07:42:12;;;;;;;8.48;2.40;;;11.70;99.90;;;;;;5003748;28;39633;-80
2021/09/30 07:44:38;;;;;;;7.07;1.63;;;11.70;99.90;;;;;;5006607;28;38373;-80
2021/09/30 07:47:04;;;;;;;7.32;1.92;;;11.80;99.90;;;;;;5002354;28;39633;-81
2021/09/30 07:49:31;;;;;;;6.63;1.45;;;11.90;99.90;;;;;;5002921;28;39045;-80
2021/09/30 07:51:58;;;;;;;5.85;1.48;;;12.00;99.90;;;;;;5003247;28;39367;-79
2021/09/30 07:54:24;;;;;;;8.57;1.52;;;12.20;99.90;;;;;;4999332;28;37081;-80
2021/09/30 07:56:50;;;;;;;13.50;1.70;;;12.30;99.90;;;;;;4999825;28;38421;-80
2021/09/30 07:59:16;;;;;;;12.05;1.88;;;12.50;99.90;;;;;;4997809;28;37727;-80
2021/09/30 08:01:42;;;;;;;11.68;1.75;;;12.60;99.90;;;;;;5003245;28;38272;-80
2021/09/30 08:04:08;;;;;;;8.55;1.55;;;12.70;99.90;;;;;;4998559;28;37244;-80
2021/09/30 08:06:39;;;;;;;8.05;1.20;;;12.90;99.90;;;;;;5004670;28;39755;-80
2021/09/30 08:09:06;;;;;;;12.93;2.05;;;13.10;99.90;;;;;;5003101;28;38972;-80
2021/09/30 08:11:32;;;;;;;10.13;1.60;;;13.20;99.90;;;;;;5002281;28;38566;-78
2021/09/30 08:13:58;;;;;;;9.45;1.58;;;13.30;99.90;;;;;;5000547;28;39117;-78
2021/09/30 08:16:27;;;;;;;6.40;1.40;;;13.30;99.90;;;;;;5011775;28;39467;-78
2021/09/30 08:18:55;;;;;;;9.13;1.90;;;13.30;99.90;;;;;;5004053;28;39565;-77
2021/09/30 08:21:22;;;;;;;9.88;2.08;;;13.20;99.90;;;;;;5011520;28;38150;-78
2021/09/30 08:23:48;;;;;;;5.25;1.25;;;13.10;99.90;;;;;;5008261;28;39063;-77
2021/09/30 08:26:19;;;;;;;5.18;1.30;;;13.10;99.90;;;;;;5004468;28;40530;-78
2021/09/30 08:28:48;;;;;;;5.05;1.33;;;13.00;99.90;;;;;;5004509;28;40424;-78
2021/09/30 08:31:15;;;;;;;9.93;1.85;;;13.00;99.90;;;;;;5001926;28;37983;-78
2021/09/30 08:33:42;;;;;;;6.47;1.40;;;13.00;99.90;;;;;;5003155;28;37228;-77
2021/09/30 08:36:12;;;;;;;7.07;1.60;;;12.90;99.90;;;;;;5006019;28;37777;-78
2021/09/30 08:38:39;;;;;;;4.20;1.15;;;13.00;99.90;;;;;;4996702;28;39346;-77
2021/09/30 08:41:07;;;;;;;6.10;1.30;;;13.00;99.90;;;;;;4997491;28;38356;-77
2021/09/30 08:43:33;;;;;;;6.60;1.27;;;13.10;99.90;;;;;;5003009;28;37933;-78
2021/09/30 08:46:00;;;;;;;5.05;1.25;;;13.10;99.90;;;;;;5002056;28;38910;-77
2021/09/30 08:48:26;;;;;;;8.68;1.63;;;13.20;99.90;;;;;;5005821;28;39586;-79
2021/09/30 08:50:53;;;;;;;6.25;2.05;;;13.30;99.90;;;;;;5007150;28;38474;-79
2021/09/30 08:53:20;;;;;;;6.05;1.52;;;13.30;99.90;;;;;;5017829;28;39096;-79
2021/09/30 08:55:46;;;;;;;8.30;1.70;;;13.40;99.90;;;;;;5002147;28;39636;-78
2021/09/30 08:58:12;;;;;;;6.88;1.20;;;13.50;99.90;;;;;;5012177;28;39142;-78
2021/09/30 09:00:42;;;;;;;4.53;1.25;;;13.60;99.90;;;;;;5003262;28;39805;-78
2021/09/30 09:03:08;;;;;;;8.30;1.40;;;13.60;99.90;;;;;;5001725;28;37228;-78
2021/09/30 09:05:38;;;;;;;6.45;2.08;;;13.60;99.90;;;;;;5004589;28;38858;-77
2021/09/30 09:08:07;;;;;;;7.55;1.30;;;13.70;99.90;;;;;;4999703;28;38581;-78
2021/09/30 09:10:40;;;;;;;8.70;1.23;;;13.80;99.90;;;;;;4998291;28;39227;-78
2021/09/30 09:13:18;;;;;;;6.47;1.25;;;13.80;99.90;;;;;;5001610;28;37893;-78
2021/09/30 09:15:46;;;;;;;4.43;1.27;;;13.90;99.90;;;;;;5007478;28;38054;-78
2021/09/30 09:18:12;;;;;;;4.78;1.30;;;13.90;99.90;;;;;;5006132;28;38794;-78
2021/09/30 09:20:39;;;;;;;6.05;1.33;;;13.90;99.90;;;;;;4995101;28;38967;-77
2021/09/30 09:23:08;;;;;;;2.60;0.82;;;13.80;99.90;;;;;;4998502;28;37993;-78
2021/09/30 09:25:34;;;;;;;3.72;0.98;;;13.90;99.90;;;;;;5000485;28;38930;-78
2021/09/30 09:28:00;;;;;;;4.78;1.65;;;13.90;99.90;;;;;;5004008;28;38907;-77
2021/09/30 09:30:31;;;;;;;5.65;1.48;;;13.90;99.90;;;;;;5007580;28;38394;-77
2021/09/30 09:33:14;;;;;;;6.97;1.45;;;14.10;99.90;;;;;;5001241;28;37530;-77
2021/09/30 09:36:10;;;;;;;10.15;1.10;;;14.10;99.90;;;;;;4996354;28;39571;-78
2021/09/30 09:38:44;;;;;;;9.38;1.55;;;14.10;99.90;;;;;;4992438;28;40246;-78
2021/09/30 09:41:21;;;;;;;4.53;1.15;;;14.20;99.90;;;;;;4998415;28;38482;-78
2021/09/30 09:43:48;;;;;;;4.82;1.30;;;14.10;99.90;;;;;;5023432;28;37939;-78
2021/09/30 09:46:22;;;;;;;6.15;1.50;;;14.10;99.90;;;;;;5018225;28;39386;-77
2021/09/30 09:48:57;;;;;;;6.53;1.73;;;14.10;99.90;;;;;;4999610;28;39493;-78
2021/09/30 09:51:23;;;;;;;11.63;2.72;;;14.10;99.90;;;;;;5008586;28;40295;-78
2021/09/30 09:53:55;;;;;;;9.70;2.08;;;14.20;99.90;;;;;;5003772;28;38837;-78
2021/09/30 09:56:21;;;;;;;5.75;1.45;;;14.30;99.90;;;;;;5005271;28;39477;-78
2021/09/30 09:58:54;;;;;;;8.05;1.80;;;14.30;99.90;;;;;;4997281;28;40418;-77
2021/09/30 10:01:23;;;;;;;7.05;1.67;;;14.50;99.90;;;;;;5003191;28;39947;-77
2021/09/30 10:03:57;;;;;;;5.50;1.48;;;14.40;99.90;;;;;;4996674;28;39022;-78
2021/09/30 10:06:24;;;;;;;7.82;1.40;;;14.30;99.90;;;;;;4998740;28;39592;-77
2021/09/30 10:08:51;;;;;;;5.30;1.13;;;14.50;99.90;;;;;;5022371;28;38915;-77
2021/09/30 10:11:17;;;;;;;5.97;1.92;;;14.60;99.90;;;;;;5002805;28;39248;-78
2021/09/30 10:13:43;;;;;;;5.28;1.55;;;14.60;99.90;;;;;;5003073;28;38192;-78
2021/09/30 10:16:10;;;;;;;8.48;1.35;;;14.70;99.90;;;;;;4999602;28;38429;-77
2021/09/30 10:18:36;;;;;;;9.20;1.45;;;14.70;99.90;;;;;;5002067;28;39694;-78
2021/09/30 10:21:03;;;;;;;4.78;1.20;;;14.70;99.90;;;;;;5014874;28;39043;-77
2021/09/30 10:23:35;;;;;;;9.60;1.67;;;14.60;99.90;;;;;;4991363;28;37835;-77
2021/09/30 10:26:15;;;;;;;;;;;14.60;99.90;;;;;;5004058;28;38432;-77
2021/09/30 10:28:44;;;;;;;4.78;1.08;;;14.60;99.90;;;;;;5012937;28;42598;-77
2021/09/30 10:31:35;;;;;;;3.67;1.10;;;14.60;99.90;;;;;;4999842;28;40301;-77
2021/09/30 10:34:05;;;;;;;7.18;1.50;;;14.50;99.90;;;;;;5024716;28;38444;-77
2021/09/30 10:36:33;;;;;;;6.45;1.52;;;14.50;99.90;;;;;;5007647;28;37489;-78
2021/09/30 10:39:22;;;;;;;8.45;1.08;;;14.50;99.90;;;;;;5000311;28;38679;-77
2021/09/30 10:41:57;;;;;;;7.68;2.13;;;14.60;99.90;;;;;;4993889;28;38961;-76
2021/09/30 10:44:33;;;;;;;7.22;1.10;;;14.60;99.90;;;;;;5004656;28;38282;-77
2021/09/30 10:47:05;;;;;;;5.82;1.63;;;14.60;99.90;;;;;;5021200;28;40731;-77
2021/09/30 10:49:42;;;;;;;7.03;1.30;;;14.50;99.90;;;;;;5003595;28;39415;-76
2021/09/30 10:52:23;;;;;;;5.97;1.27;;;14.50;99.90;;;;;;5006750;28;39285;-77
2021/09/30 10:54:53;;;;;;;7.32;1.20;;;14.40;99.90;;;;;;4996594;28;39054;-77
2021/09/30 10:57:39;;;;;;;5.82;1.10;;;14.40;99.90;;;;;;4999976;28;40677;-77
2021/09/30 11:00:17;;;;;;;4.95;1.58;;;14.20;99.90;;;;;;5018614;28;39464;-77
2021/09/30 11:03:05;;;;;;;5.25;1.25;;;14.10;99.90;;;;;;5006286;28;48810;-77
2021/09/30 11:05:34;;;;;;;6.40;1.25;;;14.10;99.90;;;;;;5000011;28;38025;-77
2021/09/30 11:08:26;;;;;;;8.05;1.58;;;14.00;99.90;;;;;;4996216;28;40244;-77
2021/09/30 11:11:05;;;;;;;6.50;1.02;;;14.10;99.90;;;;;;4994579;28;38210;-77
2021/09/30 11:13:46;;;;;;;6.50;1.25;;;14.00;99.90;;;;;;4994703;28;38624;-77
2021/09/30 11:16:20;;;;;;;5.97;0.98;;;14.10;99.90;;;;;;5001448;28;36515;-77
2021/09/30 11:18:56;;;;;;;5.78;1.27;;;14.10;99.90;;;;;;5008977;28;39579;-77
2021/09/30 11:21:28;;;;;;;4.70;0.77;;;14.20;99.90;;;;;;5002847;28;39969;-78
2021/09/30 11:23:55;;;;;;;4.57;1.10;;;14.40;99.90;;;;;;5022715;28;39333;-77
2021/09/30 11:26:22;;;;;;;4.20;0.80;;;14.30;99.90;;;;;;5004148;28;37330;-77
2021/09/30 11:28:48;;;;;;;6.97;1.08;;;14.30;99.90;;;;;;5001080;28;38665;-76
2021/09/30 11:31:28;;;;;;;3.00;0.90;;;14.20;99.90;;;;;;5001124;28;39467;-77
2021/09/30 11:33:57;;;;;;;3.08;0.73;;;14.20;99.90;;;;;;4996096;28;38407;-77
2021/09/30 11:36:38;;;;;;;4.50;1.35;;;14.10;99.90;;;;;;5000033;28;37005;-78
2021/09/30 11:39:05;;;;;;;8.23;1.00;;;14.10;99.90;;;;;;5006417;28;40678;-78
2021/09/30 11:41:34;;;;;;;7.38;1.05;;;14.10;99.90;;;;;;5021445;28;40228;-78
2021/09/30 11:44:01;;;;;;;4.50;1.20;;;14.10;99.90;;;;;;4996544;28;38198;-78
2021/09/30 11:46:32;;;;;;;5.90;1.25;;;14.10;99.90;;;;;;5004099;28;38666;-80
2021/09/30 11:49:03;;;;;;;12.82;2.88;;;14.10;99.90;;;;;;5006593;28;37852;-77
2021/09/30 11:51:44;;;;;;;8.10;1.60;;;14.10;99.90;;;;;;5016533;28;39528;-77
2021/09/30 11:54:15;;;;;;;7.53;1.30;;;14.00;99.90;;;;;;4999642;28;40482;-77
2021/09/30 11:56:55;;;;;;;8.13;2.10;;;14.00;99.90;;;;;;4996203;28;37188;-77
2021/09/30 11:59:24;;;;;;;7.70;1.30;;;14.00;99.90;;;;;;4999762;28;39471;-77
2021/09/30 12:01:53;;;;;;;7.72;1.38;;;14.00;99.90;;;;;;5004675;28;39756;-77
2021/09/30 12:04:40;;;;;;;6.82;1.40;;;14.20;99.90;;;;;;5018959;28;38381;-80
2021/09/30 12:07:18;;;;;;;6.43;1.50;;;14.30;99.90;;;;;;5008426;28;38108;-77
2021/09/30 12:09:44;;;;;;;5.70;1.17;;;14.30;99.90;;;;;;5002846;28;39803;-77
2021/09/30 12:12:10;;;;;;;10.00;1.30;;;14.20;99.90;;;;;;5001695;28;39556;-77
2021/09/30 12:14:43;;;;;;;6.97;1.50;;;14.30;99.90;;;;;;4997913;28;39069;-77
2021/09/30 12:17:14;;;;;;;11.57;2.22;;;14.40;99.90;;;;;;4993094;28;37173;-77
2021/09/30 12:19:45;;;;;;;6.78;1.75;;;14.40;99.90;;;;;;5003494;28;40835;-78
2021/09/30 12:22:34;;;;;;;7.13;1.50;;;14.50;99.90;;;;;;5016651;28;39305;-78
2021/09/30 12:25:09;;;;;;;7.93;2.25;;;14.70;99.90;;;;;;5019862;28;39478;-78
2021/09/30 12:27:38;;;;;;;8.60;1.60;;;14.90;99.90;;;;;;4978751;28;47346;-77
2021/09/30 12:30:09;;;;;;;8.20;1.83;;;15.10;99.90;;;;;;4981473;28;38794;-78
2021/09/30 12:32:38;;;;;;;12.63;2.05;;;15.10;99.90;;;;;;4975984;28;47983;-78
2021/09/30 12:35:07;;;;;;;7.70;1.90;;;15.10;99.90;;;;;;4982125;28;39228;-77
2021/09/30 12:37:39;;;;;;;8.50;2.60;;;15.10;99.90;;;;;;4975058;28;48386;-78
2021/09/30 12:40:12;;;;;;;10.77;2.28;;;15.10;99.90;;;;;;4981763;28;38357;-77
2021/09/30 12:42:40;;;;;;;10.85;1.88;;;15.10;99.90;;;;;;4983362;28;38469;-78
2021/09/30 12:45:14;;;;;;;9.70;1.85;;;15.00;99.90;;;;;;4999816;28;39038;-77
2021/09/30 12:47:42;;;;;;;11.02;2.10;;;14.80;99.90;;;;;;5020894;28;37367;-78
2021/09/30 12:50:16;;;;;;;9.25;2.00;;;14.90;99.90;;;;;;5003272;28;38903;-77
2021/09/30 12:52:45;;;;;;;9.40;1.65;;;15.10;99.90;;;;;;5001396;28;39314;-78
2021/09/30 12:55:20;;;;;;;7.28;1.58;;;15.10;99.90;;;;;;5001519;28;41060;-78
2021/09/30 12:57:47;;;;;;;10.35;1.90;;;14.90;99.90;;;;;;5005472;28;38088;-77
2021/09/30 13:00:18;;;;;;;7.00;1.90;;;14.70;99.90;;;;;;4998373;28;38811;-77
2021/09/30 13:02:46;;;;;;;5.57;1.70;;;14.80;99.90;;;;;;4997965;28;39132;-77
2021/09/30 13:05:12;;;;;;;6.45;1.60;;;14.80;99.90;;;;;;4999363;28;37117;-77
2021/09/30 13:07:57;;;;;;;11.63;1.92;;;14.80;99.90;;;;;;4995566;28;38003;-78
2021/09/30 13:10:30;;;;;;;8.95;1.83;;;14.80;99.90;;;;;;5006244;28;38781;-78
2021/09/30 13:13:14;;;;;;;6.97;1.98;;;14.80;99.90;;;;;;5006372;28;37789;-78
2021/09/30 13:15:45;;;;;;;12.18;2.10;;;14.70;99.90;;;;;;5003536;28;38682;-78
2021/09/30 13:18:15;;;;;;;9.50;1.80;;;14.60;99.90;;;;;;4997791;28;39064;-78
2021/09/30 13:21:01;;;;;;;13.48;2.42;;;14.70;99.90;;;;;;5003145;28;37769;-78
2021/09/30 13:23:28;;;;;;;10.10;2.85;;;14.70;99.90;;;;;;5009183;28;39327;-78
2021/09/30 13:25:55;;;;;;;7.25;2.20;;;14.80;99.90;;;;;;5003204;28;39727;-78
2021/09/30 13:28:21;;;;;;;7.53;2.35;;;14.70;99.90;;;;;;5001878;28;37978;-77
2021/09/30 13:30:47;;;;;;;8.38;2.05;;;14.70;99.90;;;;;;5017407;28;39409;-76
2021/09/30 13:33:14;;;;;;;9.38;2.30;;;14.60;99.90;;;;;;4995353;28;39382;-77
2021/09/30 13:35:40;;;;;;;8.98;1.98;;;14.60;99.90;;;;;;5019786;28;38764;-77
2021/09/30 13:38:06;;;;;;;9.63;2.30;;;14.50;99.90;;;;;;5003436;28;39036;-79
2021/09/30 13:40:33;;;;;;;11.52;2.30;;;14.40;99.90;;;;;;4995677;28;39340;-79
2021/09/30 13:43:01;;;;;;;9.15;1.70;;;14.40;99.90;;;;;;5026814;28;38921;-78
2021/09/30 13:45:27;;;;;;;7.70;2.08;;;14.40;99.90;;;;;;4995204;28;39299;-79
2021/09/30 13:47:53;;;;;;;8.52;1.90;;;14.40;99.90;;;;;;4992993;28;37322;-79
2021/09/30 13:50:22;;;;;;;8.82;1.65;;;14.40;99.90;;;;;;4995984;28;39550;-79
2021/09/30 13:52:51;;;;;;;7.63;2.13;;;14.40;99.90;;;;;;4996174;28;39551;-79
2021/09/30 13:55:18;;;;;;;9.05;1.60;;;14.60;99.90;;;;;;4998720;28;38411;-79
2021/09/30 13:57:44;;;;;;;8.30;2.65;;;14.60;99.90;;;;;;4997662;28;38142;-79
2021/09/30 14:00:14;;;;;;;7.78;1.55;;;14.50;99.90;;;;;;5020422;28;38439;-78
2021/09/30 14:02:43;;;;;;;8.20;1.60;;;14.60;99.90;;;;;;4996258;28;39836;-79
2021/09/30 14:05:11;;;;;;;9.25;1.65;;;14.60;99.90;;;;;;4997561;28;39069;-79
2021/09/30 14:07:41;;;;;;;7.78;1.55;;;14.60;99.90;;;;;;4997455;28;38745;-79
2021/09/30 14:10:15;;;;;;;13.60;2.17;;;14.60;99.90;;;;;;4999922;28;39789;-78
2021/09/30 14:12:43;;;;;;;14.90;1.83;;;14.60;99.90;;;;;;5008763;28;40440;-78
2021/09/30 14:15:10;;;;;;;9.50;1.80;;;14.60;99.90;;;;;;5000464;28;38522;-78
2021/09/30 14:17:39;;;;;;;7.65;2.15;;;14.60;99.90;;;;;;4999421;28;39115;-79
2021/09/30 14:20:06;;;;;;;10.88;2.35;;;14.50;99.90;;;;;;5006749;28;38633;-78
2021/09/30 14:22:32;;;;;;;6.75;1.90;;;14.50;99.90;;;;;;5016097;28;38913;-79
2021/09/30 14:24:58;;;;;;;8.48;1.60;;;14.50;99.90;;;;;;5001563;28;38514;-78
2021/09/30 14:27:28;;;;;;;12.07;2.53;;;14.50;99.90;;;;;;5000637;28;37084;-78
2021/09/30 14:29:54;;;;;;;5.70;1.55;;;14.50;99.90;;;;;;5004407;28;38955;-79
2021/09/30 14:32:20;;;;;;;8.55;1.88;;;14.50;99.90;;;;;;4996632;28;40021;-79
2021/09/30 14:34:46;;;;;;;9.15;1.88;;;14.50;99.90;;;;;;5004391;28;38650;-79
2021/09/30 14:37:12;;;;;;;5.75;1.80;;;14.60;99.90;;;;;;5009907;28;37129;-78
2021/09/30 14:39:38;;;;;;;9.30;2.08;;;14.50;99.90;;;;;;5006644;28;38551;-79
2021/09/30 14:42:05;;;;;;;6.60;1.52;;;14.50;99.90;;;;;;5012470;28;40510;-79
2021/09/30 14:44:31;;;;;;;12.57;1.92;;;14.50;99.90;;;;;;5010511;28;38528;-80
2021/09/30 14:47:01;;;;;;;7.68;1.67;;;14.50;99.90;;;;;;5003053;28;37295;-79
2021/09/30 14:49:27;;;;;;;10.73;1.80;;;14.50;99.90;;;;;;5006485;28;39782;-79
2021/09/30 14:51:53;;;;;;;7.75;1.67;;;14.50;99.90;;;;;;5008718;28;38520;-79
2021/09/30 14:54:20;;;;;;;9.77;1.67;;;14.50;99.90;;;;;;5004033;28;38671;-78
2021/09/30 14:56:47;;;;;;;7.03;1.50;;;14.50;99.90;;;;;;5010742;28;36899;-80
2021/09/30 14:59:14;;;;;;;4.38;1.50;;;14.50;99.90;;;;;;5004386;28;37598;-79
2021/09/30 15:01:40;;;;;;;8.85;1.92;;;14.50;99.90;;;;;;5004823;28;39471;-79
2021/09/30 15:04:06;;;;;;;11.38;1.92;;;14.50;99.90;;;;;;5014294;28;39186;-79
2021/09/30 15:06:40;;;;;;;9.45;1.77;;;14.50;99.90;;;;;;5013773;28;37922;-78
2021/09/30 15:09:07;;;;;;;10.35;1.60;;;14.60;99.90;;;;;;5005583;28;40517;-79
2021/09/30 15:11:34;;;;;;;7.32;1.30;;;14.60;99.90;;;;;;5010685;28;40393;-79
2021/09/30 15:14:00;;;;;;;7.38;1.73;;;14.60;99.90;;;;;;5009386;28;38407;-79
2021/09/30 15:16:28;;;;;;;7.82;1.50;;;14.60;99.90;;;;;;5004682;28;37855;-79
2021/09/30 15:19:02;;;;;;;5.60;1.08;;;14.60;99.90;;;;;;5008557;28;39319;-78
2021/09/30 15:21:28;;;;;;;4.45;1.30;;;14.60;99.90;;;;;;5010535;28;40395;-79
2021/09/30 15:23:58;;;;;;;9.35;1.67;;;14.60;99.90;;;;;;5022057;28;38240;-79
2021/09/30 15:26:25;;;;;;;8.63;1.63;;;14.60;99.90;;;;;;5007989;28;37520;-79
2021/09/30 15:28:53;;;;;;;8.07;1.90;;;14.60;99.90;;;;;;5005097;28;40469;-79
2021/09/30 15:31:20;;;;;;;6.60;1.55;;;14.60;99.90;;;;;;4998583;28;37734;-80
2021/09/30 15:33:50;;;;;;;5.07;1.45;;;14.70;99.90;;;;;;4999505;28;39071;-79
2021/09/30 15:36:17;;;;;;;6.32;1.60;;;14.70;99.90;;;;;;5012555;28;39090;-79
2021/09/30 15:38:44;;;;;;;7.30;1.70;;;14.70;99.90;;;;;;5007090;28;38982;-81
2021/09/30 15:41:11;;;;;;;6.28;1.23;;;14.70;99.90;;;;;;5001792;28;38442;-79
2021/09/30 15:43:37;;;;;;;4.53;1.45;;;14.70;99.90;;;;;;5000066;28;39303;-79
2021/09/30 15:46:05;;;;;;;6.95;1.55;;;14.80;99.90;;;;;;5008226;28;36980;-79
2021/09/30 15:48:31;;;;;;;12.00;1.65;;;14.70;99.90;;;;;;5005041;28;38540;-79